Time;durP1;ratioP1;P1;durP2;ratioP2;P2;SDS_P1;SDS_P2;PMS_P1;PMS_P2;Temp;Humidity;BMP_temperature;BMP_pressure;BME280_temperature;BME280_humidity;BME280_pressure;Samples;Min_cycle;Max_cycle;Signal;HPM_P1;HPM_P2
2020/12/04 00:01:25;;;;;;;34.08;20.60;;;;;;;-1.98;100.00;102278.34;1794436;79;21193;-89
2020/12/04 00:03:53;;;;;;;26.07;16.07;;;;;;;-1.96;100.00;102274.94;1794514;79;21354;-89
2020/12/04 00:06:21;;;;;;;32.83;18.62;;;;;;;-1.92;100.00;102275.39;1794453;79;21482;-89
2020/12/04 00:08:49;;;;;;;34.58;20.60;;;;;;;-1.84;100.00;102277.96;1794431;79;21546;-90
2020/12/04 00:11:17;;;;;;;34.58;18.67;;;;;;;-1.81;100.00;102277.14;1794389;80;21455;-90
2020/12/04 00:13:45;;;;;;;33.53;18.90;;;;;;;-1.80;100.00;102277.55;1771525;80;21670;-90
2020/12/04 00:16:13;;;;;;;32.35;17.25;;;;;;;-1.80;100.00;102280.09;1794360;80;21192;-89
2020/12/04 00:18:41;;;;;;;31.57;18.90;;;;;;;-1.78;100.00;102286.94;1794763;79;21166;-89
2020/12/04 00:21:12;;;;;;;33.83;19.50;;;;;;;-1.77;100.00;102291.61;1794676;79;21071;-89
2020/12/04 00:23:40;;;;;;;34.83;19.70;;;;;;;-1.82;100.00;102288.20;1794858;79;21169;-90
2020/12/04 00:26:08;;;;;;;35.05;18.87;;;;;;;-1.84;100.00;102298.39;1794842;79;21468;-89
2020/12/04 00:28:36;;;;;;;31.40;19.02;;;;;;;-1.82;100.00;102293.31;1794846;79;22269;-89
2020/12/04 00:31:04;;;;;;;31.60;19.60;;;;;;;-1.83;100.00;102289.05;1794621;79;21113;-90
2020/12/04 00:33:32;;;;;;;37.08;20.02;;;;;;;-1.87;100.00;102292.42;1794659;79;21158;-90
2020/12/04 00:36:00;;;;;;;33.80;19.42;;;;;;;-1.89;100.00;102292.42;1794644;80;21121;-89
2020/12/04 00:38:30;;;;;;;37.42;21.17;;;;;;;-1.92;100.00;102291.13;1794736;80;21130;-90
2020/12/04 00:40:58;;;;;;;35.80;20.97;;;;;;;-1.94;100.00;102278.36;1780742;79;21200;-90
2020/12/04 00:43:28;;;;;;;34.73;19.95;;;;;;;-1.98;100.00;102290.70;1787000;80;21166;-90
2020/12/04 00:45:56;;;;;;;32.17;19.50;;;;;;;-1.99;100.00;102291.55;1772991;79;21150;-89
2020/12/04 00:48:24;;;;;;;31.62;18.32;;;;;;;-1.96;100.00;102286.43;1763385;81;21134;-89
2020/12/04 00:50:54;;;;;;;36.15;20.55;;;;;;;-1.91;100.00;102286.05;1781695;80;21042;-90
2020/12/04 00:53:23;;;;;;;35.78;20.00;;;;;;;-1.86;100.00;102279.68;1794837;80;22332;-89
2020/12/04 00:55:51;;;;;;;31.85;19.02;;;;;;;-1.87;100.00;102275.41;1794665;79;21256;-90
2020/12/04 00:58:19;;;;;;;32.00;18.05;;;;;;;-1.88;100.00;102281.80;1794761;79;21185;-90
2020/12/04 01:00:47;;;;;;;29.10;17.82;;;;;;;-1.82;100.00;102281.81;1791217;80;21187;-89
2020/12/04 01:03:15;;;;;;;32.88;17.98;;;;;;;-1.76;100.00;102283.11;1770852;80;21195;-89
2020/12/04 01:05:43;;;;;;;35.92;20.72;;;;;;;-1.73;100.00;102279.30;1789706;80;21607;-89
2020/12/04 01:08:12;;;;;;;35.25;20.50;;;;;;;-1.77;100.00;102282.67;1789830;80;21112;-91
2020/12/04 01:10:43;;;;;;;32.15;19.23;;;;;;;-1.82;100.00;102276.27;1789851;80;21516;-90
2020/12/04 01:13:11;;;;;;;34.05;19.70;;;;;;;-1.82;100.00;102276.71;1789699;80;21120;-91
2020/12/04 01:15:40;;;;;;;29.63;17.67;;;;;;;-1.87;100.00;102271.98;1790067;80;21117;-90
2020/12/04 01:18:08;;;;;;;34.98;19.30;;;;;;;-1.92;100.00;102279.23;1789969;80;22282;-89
2020/12/04 01:20:36;;;;;;;31.73;18.42;;;;;;;-1.95;100.00;102275.38;1790041;80;21571;-90
2020/12/04 01:23:04;;;;;;;34.65;19.42;;;;;;;-1.95;100.00;102272.82;1790022;80;21124;-89
2020/12/04 01:25:32;;;;;;;36.93;18.85;;;;;;;-1.94;100.00;102275.80;1789961;80;21120;-89
2020/12/04 01:28:00;;;;;;;34.35;19.67;;;;;;;-1.93;100.00;102271.13;1767086;80;21167;-90
2020/12/04 01:30:28;;;;;;;37.13;20.75;;;;;;;-1.94;100.00;102274.97;1763376;80;22189;-89
2020/12/04 01:32:56;;;;;;;27.52;15.55;;;;;;;-1.91;100.00;102277.52;1763177;81;21163;-89
2020/12/04 01:35:24;;;;;;;33.38;17.85;;;;;;;-1.87;100.00;102266.88;1763359;81;21149;-89
2020/12/04 01:37:52;;;;;;;31.45;18.15;;;;;;;-1.84;100.00;102267.74;1763425;81;21128;-89
2020/12/04 01:40:21;;;;;;;31.20;17.52;;;;;;;-1.80;100.00;102268.61;1763474;81;21155;-90
2020/12/04 01:42:49;;;;;;;32.75;18.40;;;;;;;-1.75;100.00;102269.05;1763371;81;21184;-90
2020/12/04 01:45:17;;;;;;;34.27;20.77;;;;;;;-1.77;100.00;102266.94;1763265;81;21219;-90
2020/12/04 01:47:45;;;;;;;35.50;19.77;;;;;;;-1.77;100.00;102262.24;1763312;81;21152;-90
2020/12/04 01:50:13;;;;;;;29.48;17.27;;;;;;;-1.80;100.00;102254.55;1763290;81;21528;-90
2020/12/04 01:52:42;;;;;;;32.93;18.12;;;;;;;-1.78;100.00;102256.30;1763427;81;21160;-89
2020/12/04 01:55:11;;;;;;;30.30;17.73;;;;;;;-1.79;100.00;102261.38;1763267;81;21367;-90
2020/12/04 01:57:46;;;;;;;31.23;18.67;;;;;;;-1.81;100.00;102266.92;1763499;81;21104;-90
2020/12/04 02:00:14;;;;;;;26.12;16.12;;;;;;;-1.81;100.00;102262.66;1761354;81;21120;-90
2020/12/04 02:02:44;;;;;;;29.12;17.35;;;;;;;-1.75;100.00;102264.38;1763297;81;21647;-90
2020/12/04 02:05:12;;;;;;;30.10;17.05;;;;;;;-1.68;100.00;102265.27;1763141;81;21190;-90
2020/12/04 02:08:01;;;;;;;34.65;19.95;;;;;;;-1.66;100.00;102250.36;1763310;81;21571;-90
2020/12/04 02:10:39;;;;;;;27.32;16.30;;;;;;;-1.67;100.00;102254.17;1763012;80;21211;-89
2020/12/04 02:13:09;;;;;;;33.35;19.57;;;;;;;-1.74;100.00;102257.16;1763367;81;21203;-89
2020/12/04 02:15:37;;;;;;;28.52;16.73;;;;;;;-1.78;100.00;102261.41;1763355;80;21531;-89
2020/12/04 02:18:07;;;;;;;29.72;17.40;;;;;;;-1.80;100.00;102264.77;1763593;81;21575;-88
2020/12/04 02:20:35;;;;;;;31.20;18.40;;;;;;;-1.81;100.00;102257.98;1763927;81;21210;-87
2020/12/04 02:23:03;;;;;;;33.15;18.65;;;;;;;-1.80;100.00;102256.70;1763775;81;21128;-88
2020/12/04 02:25:32;;;;;;;28.38;17.50;;;;;;;-1.79;100.00;102260.97;1763866;81;21169;-89
2020/12/04 02:28:00;;;;;;;29.37;17.80;;;;;;;-1.81;100.00;102256.71;1763867;81;21137;-88
2020/12/04 02:30:36;;;;;;;38.67;19.75;;;;;;;-1.82;100.00;102255.84;1763787;80;21215;-88
2020/12/04 02:33:04;;;;;;;35.63;19.50;;;;;;;-1.79;100.00;102252.03;1763801;81;22181;-88
2020/12/04 02:35:32;;;;;;;29.85;17.75;;;;;;;-1.81;100.00;102252.88;1763735;80;21703;-88
2020/12/04 02:38:00;;;;;;;34.08;19.10;;;;;;;-1.79;100.00;102256.27;1763837;81;21199;-88
2020/12/04 02:40:28;;;;;;;33.45;18.35;;;;;;;-1.79;100.00;102250.75;1763841;80;21160;-88
2020/12/04 02:42:56;;;;;;;33.95;19.48;;;;;;;-1.77;100.00;102252.02;1763955;81;21164;-88
2020/12/04 02:45:24;;;;;;;35.15;18.55;;;;;;;-1.79;100.00;102252.03;1763862;81;22279;-87
2020/12/04 02:47:52;;;;;;;34.55;19.92;;;;;;;-1.81;100.00;102251.60;1763944;81;21152;-87
2020/12/04 02:50:20;;;;;;;32.20;19.32;;;;;;;-1.83;100.00;102250.73;1763736;81;21719;-88
2020/12/04 02:52:49;;;;;;;39.73;21.70;;;;;;;-1.83;100.00;102250.73;1763748;81;21584;-88
2020/12/04 02:55:17;;;;;;;40.28;22.55;;;;;;;-1.83;100.00;102253.29;1763884;81;21148;-88
2020/12/04 02:57:45;;;;;;;38.53;20.95;;;;;;;-1.88;100.00;102254.55;1763831;81;21371;-88
2020/12/04 03:00:14;;;;;;;37.83;20.52;;;;;;;-1.90;100.00;102256.23;1763734;81;21120;-88
2020/12/04 03:02:42;;;;;;;40.33;21.10;;;;;;;-1.93;100.00;102255.81;1763739;81;21631;-89
2020/12/04 03:05:10;;;;;;;39.03;21.12;;;;;;;-1.92;100.00;102251.14;1763434;81;21132;-88
2020/12/04 03:07:38;;;;;;;42.98;20.23;;;;;;;-1.92;100.00;102252.41;1763832;81;21163;-90
2020/12/04 03:10:08;;;;;;;37.53;21.15;;;;;;;-1.92;100.00;102251.14;1763745;81;21607;-88
2020/12/04 03:12:38;;;;;;;44.60;21.45;;;;;;;-1.93;100.00;102248.16;1763765;81;21103;-88
2020/12/04 03:15:09;;;;;;;37.40;20.65;;;;;;;-1.91;100.00;102251.57;1764134;81;21535;-88
2020/12/04 03:17:36;;;;;;;41.55;21.77;;;;;;;-1.91;100.00;102248.14;1763799;80;21140;-90
2020/12/04 03:20:05;;;;;;;40.40;20.62;;;;;;;-1.92;100.00;102243.88;1763970;81;21214;-90
2020/12/04 03:23:02;;;;;;;42.83;23.02;;;;;;;-1.88;100.00;102246.05;1763737;81;21368;-90
2020/12/04 03:25:31;;;;;;;38.48;19.80;;;;;;;-1.92;100.00;102244.75;1763800;81;21136;-89
2020/12/04 03:27:59;;;;;;;42.27;21.37;;;;;;;-1.93;100.00;102237.94;1763821;81;21140;-89
2020/12/04 03:30:33;;;;;;;36.58;21.60;;;;;;;-1.91;100.00;102238.80;1763704;81;21199;-88
2020/12/04 03:33:01;;;;;;;42.67;21.87;;;;;;;-1.91;100.00;102247.73;1763849;81;21219;-89
2020/12/04 03:35:30;;;;;;;42.17;22.40;;;;;;;-1.89;100.00;102234.13;1763810;81;21198;-89
2020/12/04 03:38:00;;;;;;;42.70;22.35;;;;;;;-1.93;100.00;102244.32;1763663;81;21227;-89
2020/12/04 03:40:28;;;;;;;40.67;21.62;;;;;;;-1.94;100.00;102246.87;1763745;81;21430;-89
2020/12/04 03:43:00;;;;;;;41.45;21.30;;;;;;;-1.93;100.00;102243.05;1763966;81;21155;-90
2020/12/04 03:45:28;;;;;;;44.08;23.35;;;;;;;-1.87;100.00;102249.00;1764012;81;21136;-91
2020/12/04 03:47:56;;;;;;;42.05;22.60;;;;;;;-1.85;100.00;102242.21;1764014;81;21568;-91
2020/12/04 03:50:24;;;;;;;49.53;22.80;;;;;;;-1.86;100.00;102239.23;1763927;81;21148;-88
2020/12/04 03:52:52;;;;;;;40.98;20.08;;;;;;;-1.83;100.00;102240.52;1763546;81;21127;-88
2020/12/04 03:55:21;;;;;;;38.30;18.80;;;;;;;-1.79;100.00;102239.27;1763891;80;21140;-89
2020/12/04 03:57:49;;;;;;;30.97;18.52;;;;;;;-1.72;100.00;102241.38;1763918;80;21218;-89
2020/12/04 04:00:17;;;;;;;37.88;20.52;;;;;;;-1.65;100.00;102241.85;1763991;81;22283;-89
2020/12/04 04:02:45;;;;;;;50.23;22.95;;;;;;;-1.63;100.00;102238.02;1763776;80;21072;-89
2020/12/04 04:05:13;;;;;;;55.65;25.68;;;;;;;-1.62;100.00;102241.00;1763858;81;22091;-89
2020/12/04 04:07:41;;;;;;;45.85;24.18;;;;;;;-1.62;100.00;102243.11;1763888;81;21159;-88
2020/12/04 04:10:10;;;;;;;50.85;25.72;;;;;;;-1.63;100.00;102239.29;1763774;80;21129;-89
2020/12/04 04:12:38;;;;;;;52.65;25.23;;;;;;;-1.66;100.00;102241.83;1763798;81;21543;-89
2020/12/04 04:15:06;;;;;;;65.70;27.87;;;;;;;-1.69;100.00;102238.84;1763728;81;21160;-88
2020/12/04 04:17:34;;;;;;;43.92;23.45;;;;;;;-1.72;100.00;102243.94;1763757;81;21156;-88
2020/12/04 04:20:04;;;;;;;55.75;23.18;;;;;;;-1.75;100.00;102242.67;1763768;81;21061;-89
2020/12/04 04:22:32;;;;;;;53.90;24.32;;;;;;;-1.77;100.00;102239.25;1764140;81;21150;-89
2020/12/04 04:25:00;;;;;;;43.55;22.48;;;;;;;-1.77;100.00;102248.20;1763740;80;21187;-88
2020/12/04 04:27:29;;;;;;;61.65;28.38;;;;;;;-1.78;100.00;102252.47;1763599;81;21159;-89
2020/12/04 04:29:57;;;;;;;62.25;26.75;;;;;;;-1.79;100.00;102251.16;1763835;80;21115;-88
2020/12/04 04:32:25;;;;;;;56.48;24.35;;;;;;;-1.82;100.00;102258.39;1763806;81;21163;-89
2020/12/04 04:34:54;;;;;;;59.05;26.70;;;;;;;-1.86;100.00;102253.27;1764026;81;21485;-88
2020/12/04 04:37:22;;;;;;;52.08;24.85;;;;;;;-1.88;100.00;102255.83;1763805;81;21195;-89
2020/12/04 04:39:51;;;;;;;45.70;22.15;;;;;;;-1.89;100.00;102260.50;1763714;81;21663;-89
2020/12/04 04:42:19;;;;;;;47.43;22.90;;;;;;;-1.87;100.00;102259.22;1772402;80;21210;-89
2020/12/04 04:44:49;;;;;;;42.27;20.02;;;;;;;-1.82;100.00;102259.67;1777974;80;21154;-90
2020/12/04 04:47:20;;;;;;;45.20;22.58;;;;;;;-1.74;100.00;102260.98;1780971;80;21119;-89
2020/12/04 04:49:51;;;;;;;47.08;21.77;;;;;;;-1.70;100.00;102249.07;1781358;80;21566;-89
2020/12/04 04:52:22;;;;;;;42.03;20.35;;;;;;;-1.69;100.00;102246.51;1781463;79;21131;-89
2020/12/04 04:54:51;;;;;;;43.17;22.27;;;;;;;-1.66;100.00;102254.20;1781375;80;21531;-90
2020/12/04 04:57:25;;;;;;;43.10;21.82;;;;;;;-1.60;100.00;102252.92;1781566;79;21084;-89
2020/12/04 04:59:54;;;;;;;42.80;22.37;;;;;;;-1.58;100.00;102256.75;1781532;79;21551;-88
2020/12/04 05:02:23;;;;;;;41.88;20.52;;;;;;;-1.60;100.00;102255.48;1781517;79;21435;-90
2020/12/04 05:04:56;;;;;;;45.28;23.02;;;;;;;-1.60;100.00;102259.72;1781530;80;21158;-90
2020/12/04 05:07:32;;;;;;;40.80;20.77;;;;;;;-1.62;100.00;102259.72;1781587;80;21547;-89
2020/12/04 05:10:20;;;;;;;44.50;22.17;;;;;;;-1.61;100.00;102259.31;1777140;80;21198;-89
2020/12/04 05:13:00;;;;;;;49.75;23.00;;;;;;;-1.64;100.00;102262.69;1781523;79;21570;-90
2020/12/04 05:15:31;;;;;;;37.80;19.90;;;;;;;-1.68;100.00;102272.48;1780232;80;22190;-87
2020/12/04 05:18:06;;;;;;;45.88;20.82;;;;;;;-1.70;100.00;102269.07;1780257;79;21507;-89
2020/12/04 05:20:40;;;;;;;47.23;21.05;;;;;;;-1.68;100.00;102269.09;1767026;80;21065;-89
2020/12/04 05:23:09;;;;;;;38.13;20.32;;;;;;;-1.65;100.00;102273.78;1767084;81;21066;-87
2020/12/04 05:25:44;;;;;;;39.67;19.92;;;;;;;-1.59;100.00;102276.75;1791617;78;21104;-89
2020/12/04 05:28:27;;;;;;;39.67;19.37;;;;;;;-1.54;100.00;102279.32;1798871;79;21330;-90
2020/12/04 05:31:10;;;;;;;44.53;21.20;;;;;;;-1.53;100.00;102278.07;1786561;80;21156;-89
2020/12/04 05:33:44;;;;;;;43.33;19.32;;;;;;;-1.54;100.00;102274.21;1795330;79;21486;-86
2020/12/04 05:36:30;;;;;;;38.00;17.75;;;;;;;-1.55;100.00;102280.17;1795160;79;21131;-88
2020/12/04 05:38:59;;;;;;;44.18;20.10;;;;;;;-1.55;100.00;102280.17;1781596;79;21092;-87
2020/12/04 05:41:27;;;;;;;33.80;17.15;;;;;;;-1.55;100.00;102273.78;1833905;77;21348;-88
2020/12/04 05:43:55;;;;;;;43.33;18.98;;;;;;;-1.52;100.00;102276.36;1833896;77;21558;-88
2020/12/04 05:46:25;;;;;;;41.45;18.85;;;;;;;-1.49;100.00;102281.05;1833977;77;21162;-88
2020/12/04 05:49:08;;;;;;;36.75;20.05;;;;;;;-1.48;100.00;102279.33;1810309;78;21154;-88
2020/12/04 05:51:39;;;;;;;38.65;18.55;;;;;;;-1.45;100.00;102295.95;1789516;79;21120;-88
2020/12/04 05:54:12;;;;;;;36.45;18.67;;;;;;;-1.49;100.00;102286.59;1801485;78;22096;-86
2020/12/04 05:56:40;;;;;;;35.40;19.27;;;;;;;-1.57;100.00;102293.39;1833004;77;21172;-88
2020/12/04 05:59:11;;;;;;;38.70;20.23;;;;;;;-1.66;100.00;102300.17;1861148;77;21112;-88
2020/12/04 06:01:45;;;;;;;;;;;;;;;-1.72;99.94;102307.80;1863893;77;21246;-87
2020/12/04 06:04:18;;;;;;;41.95;18.95;;;;;;;-1.75;100.00;102315.03;1804814;79;20270;-87
2020/12/04 06:06:48;;;;;;;35.05;19.70;;;;;;;-1.75;99.85;102316.75;1782418;79;21190;-87
2020/12/04 06:09:24;;;;;;;39.18;19.95;;;;;;;-1.78;99.33;102318.00;1802275;77;21264;-87
2020/12/04 06:11:52;;;;;;;32.85;18.17;;;;;;;-1.79;99.50;102316.28;1799566;79;21486;-87
2020/12/04 06:14:25;;;;;;;32.93;18.15;;;;;;;-1.80;99.30;102321.83;1780318;79;21164;-87
2020/12/04 06:17:10;;;;;;;40.35;17.12;;;;;;;-1.80;99.14;102319.69;1790035;77;21106;-87
2020/12/04 06:19:42;;;;;;;35.88;18.52;;;;;;;-1.83;98.39;102319.25;1794707;77;21243;-87
2020/12/04 06:25:00;;;;;;;30.30;16.23;;;;;;;-1.87;97.01;102324.34;1872878;76;22364;-86
2020/12/04 06:27:44;;;;;;;40.70;18.92;;;;;;;-1.96;96.54;102331.11;1840757;77;21165;-87
2020/12/04 06:30:18;;;;;;;36.50;18.30;;;;;;;-2.00;96.47;102333.23;1844076;75;22262;-86
2020/12/04 06:32:49;;;;;;;32.73;16.82;;;;;;;-1.99;97.02;102333.67;1868513;76;21104;-87
2020/12/04 06:35:42;;;;;;;40.75;17.02;;;;;;;-1.96;97.29;102336.22;1875202;75;25575;-85
2020/12/04 06:38:35;;;;;;;30.12;17.12;;;;;;;-1.91;97.54;102337.12;1715756;83;21320;-87
2020/12/04 06:41:34;;;;;;;35.33;18.10;;;;;;;-1.75;99.83;102334.63;1861256;75;21081;-85
2020/12/04 06:44:07;;;;;;;74.97;18.85;;;;;;;-1.60;99.24;102329.57;1789908;78;21627;-86
2020/12/04 06:46:43;;;;;;;65.10;18.17;;;;;;;-1.51;97.49;102327.89;1808687;79;21200;-83
2020/12/04 06:52:19;;;;;;;44.18;16.52;;;;;;;-1.55;95.66;102328.72;1789882;80;21171;-86
2020/12/04 06:54:50;;;;;;;32.60;16.32;;;;;;;-1.60;95.42;102330.84;1813466;78;21166;-88
2020/12/04 06:57:21;;;;;;;39.50;17.60;;;;;;;-1.65;94.54;102327.44;1789903;79;21189;-89
2020/12/04 06:59:50;;;;;;;45.90;18.85;;;;;;;-1.60;96.32;102331.25;1813544;79;21148;-89
2020/12/04 07:02:24;;;;;;;37.03;16.10;;;;;;;-1.55;96.54;102323.20;1776324;79;21210;-89
2020/12/04 07:04:54;;;;;;;42.62;18.95;;;;;;;-1.49;96.45;102333.87;1766788;80;21065;-88
2020/12/04 07:07:26;;;;;;;42.50;18.37;;;;;;;-1.47;95.63;102337.25;1750443;80;21114;-89
2020/12/04 07:10:00;;;;;;;36.20;18.77;;;;;;;-1.45;95.70;102335.16;1750358;82;21206;-88
2020/12/04 07:12:31;;;;;;;36.58;17.07;;;;;;;-1.41;94.74;102337.70;1750226;82;21604;-87
2020/12/04 07:15:00;;;;;;;42.48;18.60;;;;;;;-1.42;95.02;102333.03;1750581;80;21165;-87
2020/12/04 07:17:31;;;;;;;36.38;16.25;;;;;;;-1.39;95.74;102334.73;1750407;80;21158;-87
2020/12/04 07:20:00;;;;;;;36.13;17.57;;;;;;;-1.34;96.08;102335.19;1750241;80;21498;-86
2020/12/04 07:22:28;;;;;;;31.30;17.15;;;;;;;-1.24;96.70;102333.93;1750251;80;21366;-88
2020/12/04 07:24:57;;;;;;;30.60;16.57;;;;;;;-1.07;98.13;102337.77;1750250;81;21078;-86
2020/12/04 07:27:28;;;;;;;26.48;14.60;;;;;;;-0.93;97.17;102340.36;1750418;80;21158;-88
2020/12/04 07:29:57;;;;;;;32.60;15.72;;;;;;;-0.85;97.05;102342.48;1750461;80;21114;-87
2020/12/04 07:32:26;;;;;;;30.10;16.77;;;;;;;-0.85;94.58;102347.16;1750416;80;21534;-86
2020/12/04 07:34:54;;;;;;;34.27;16.35;;;;;;;-0.93;93.31;102354.42;1750097;80;21202;-88
2020/12/04 07:37:27;;;;;;;33.13;17.75;;;;;;;-1.02;93.99;102347.57;1749854;80;21565;-89
2020/12/04 07:39:55;;;;;;;32.78;17.05;;;;;;;-1.03;93.42;102344.58;1746361;80;21162;-88
2020/12/04 07:42:24;;;;;;;31.62;18.05;;;;;;;-1.04;94.55;102341.19;1749744;81;21332;-88
2020/12/04 07:44:54;;;;;;;35.08;16.60;;;;;;;-1.06;92.79;102346.72;1749926;81;21155;-88
2020/12/04 07:47:22;;;;;;;30.92;17.73;;;;;;;-1.10;92.44;102347.58;1749866;80;21266;-88
2020/12/04 07:49:53;;;;;;;36.25;17.37;;;;;;;-1.15;92.56;102351.81;1749711;80;21555;-88
2020/12/04 07:52:29;;;;;;;34.13;18.17;;;;;;;-1.19;92.40;102359.06;1760162;79;21164;-87
2020/12/04 07:55:00;;;;;;;31.52;17.77;;;;;;;-1.19;93.15;102359.06;1770387;80;21151;-88
2020/12/04 07:58:11;;;;;;;35.20;17.87;;;;;;;-1.14;92.99;102367.17;1772428;80;21143;-87
2020/12/04 08:00:39;;;;;;;32.67;15.32;;;;;;;-1.11;92.68;102359.93;1757050;80;22090;-86
2020/12/04 08:03:14;;;;;;;30.00;16.80;;;;;;;-1.07;93.13;102350.12;1770806;80;21666;-87
2020/12/04 08:05:42;;;;;;;31.20;16.70;;;;;;;-1.06;91.68;102354.83;1765444;79;21151;-87
2020/12/04 08:08:14;;;;;;;33.05;16.60;;;;;;;-1.14;91.07;102354.80;1765488;80;22253;-87
2020/12/04 08:10:43;;;;;;;32.42;16.82;;;;;;;-1.21;91.78;102345.42;1758862;80;21610;-88
2020/12/04 08:13:12;;;;;;;32.73;17.02;;;;;;;-1.22;91.57;102337.31;1765065;79;22412;-87
2020/12/04 08:15:42;;;;;;;33.10;16.23;;;;;;;-1.18;92.41;102342.88;1770292;80;21075;-88
2020/12/04 08:18:10;;;;;;;32.58;17.37;;;;;;;-1.06;92.63;102336.48;1753735;80;21198;-88
2020/12/04 08:20:41;;;;;;;31.55;16.32;;;;;;;-0.97;92.12;102330.55;1749870;80;21168;-87
2020/12/04 08:23:09;;;;;;;31.73;16.57;;;;;;;-0.90;91.84;102332.66;1752783;80;21221;-87
2020/12/04 08:25:37;;;;;;;31.42;16.25;;;;;;;-0.83;91.74;102316.46;1780551;79;21265;-87
2020/12/04 08:28:06;;;;;;;33.70;17.73;;;;;;;-0.77;90.93;102319.45;1780757;79;21197;-87
2020/12/04 08:30:39;;;;;;;31.10;16.17;;;;;;;-0.75;90.67;102327.98;1780641;79;21127;-86
2020/12/04 08:33:06;;;;;;;31.68;16.65;;;;;;;-0.72;91.31;102329.28;1768674;79;21062;-86
2020/12/04 08:35:41;;;;;;;34.40;17.50;;;;;;;-0.68;90.74;102326.69;1764993;79;21563;-86
2020/12/04 08:41:02;;;;;;;34.73;18.50;;;;;;;-0.46;91.43;102325.81;1887870;76;22413;-86
2020/12/04 08:43:30;;;;;;;40.67;18.98;;;;;;;-0.43;90.58;102330.50;1849046;77;21511;-86
2020/12/04 08:45:58;;;;;;;38.90;21.50;;;;;;;-0.38;90.50;102327.94;1821586;77;21460;-86
2020/12/04 08:48:29;;;;;;;36.77;18.85;;;;;;;-0.33;90.75;102336.03;1821140;77;21001;-86
2020/12/04 08:51:04;;;;;;;34.90;18.75;;;;;;;-0.25;90.18;102336.45;1821031;77;21150;-87
2020/12/04 08:53:34;;;;;;;34.90;19.67;;;;;;;-0.23;89.75;102332.19;1819352;78;21563;-87
2020/12/04 08:56:04;;;;;;;36.48;18.32;;;;;;;-0.19;89.70;102323.62;1821117;78;21135;-87
2020/12/04 08:58:33;;;;;;;33.48;18.87;;;;;;;-0.14;89.96;102319.36;1821271;78;21356;-87
2020/12/04 09:01:01;;;;;;;33.70;18.25;;;;;;;-0.07;89.29;102312.48;1821002;77;21166;-87
2020/12/04 09:03:30;;;;;;;31.90;16.73;;;;;;;-0.02;89.26;102307.78;1834892;77;21123;-87
2020/12/04 09:05:59;;;;;;;29.10;16.82;;;;;;;0.03;89.17;102315.45;1849005;77;21491;-88
2020/12/04 09:08:27;;;;;;;37.40;20.08;;;;;;;0.07;89.15;102318.84;1846303;77;21233;-88
2020/12/04 09:10:55;;;;;;;32.85;19.70;;;;;;;0.08;88.29;102311.59;1826614;77;21368;-88
2020/12/04 09:13:24;;;;;;;34.50;18.90;;;;;;;0.06;89.03;102319.29;1843962;77;21162;-88
2020/12/04 09:15:53;;;;;;;32.13;18.98;;;;;;;0.12;89.12;102310.73;1848502;77;21139;-87
2020/12/04 09:18:21;;;;;;;32.05;18.52;;;;;;;0.13;88.83;102308.57;1836772;77;21825;-87
2020/12/04 09:20:49;;;;;;;34.88;18.37;;;;;;;0.09;88.39;102308.17;1817406;78;21143;-87
2020/12/04 09:23:18;;;;;;;30.88;17.67;;;;;;;0.10;88.75;102312.00;1821217;77;22131;-87
2020/12/04 09:25:46;;;;;;;32.67;18.30;;;;;;;0.13;88.64;102304.72;1822118;77;21179;-88
2020/12/04 09:28:17;;;;;;;31.37;18.37;;;;;;;0.21;89.34;102304.70;1831095;77;21143;-85
2020/12/04 09:30:45;;;;;;;27.10;16.67;;;;;;;0.25;88.49;102295.72;1825863;77;21630;-86
2020/12/04 09:33:13;;;;;;;33.50;18.95;;;;;;;0.24;87.65;102300.86;1825369;77;21124;-86
2020/12/04 09:35:41;;;;;;;27.90;15.88;;;;;;;0.20;87.60;102294.87;1815379;79;21612;-86
2020/12/04 09:38:09;;;;;;;37.98;17.23;;;;;;;0.17;87.64;102301.72;1815476;79;21138;-86
2020/12/04 09:40:37;;;;;;;30.25;17.52;;;;;;;0.18;88.26;102295.33;1827765;77;21539;-86
2020/12/04 09:43:05;;;;;;;34.13;18.12;;;;;;;0.20;88.55;102296.59;1851852;77;21182;-86
2020/12/04 09:45:34;;;;;;;32.75;17.60;;;;;;;0.20;88.70;102296.15;1820982;78;21140;-87
2020/12/04 09:48:02;;;;;;;29.48;17.90;;;;;;;0.22;88.87;102289.76;1821379;78;21500;-86
2020/12/04 09:50:30;;;;;;;32.35;17.82;;;;;;;0.24;89.01;102292.73;1819493;77;21206;-86
2020/12/04 09:52:59;;;;;;;31.23;17.32;;;;;;;0.27;88.57;102278.63;1827936;77;21150;-86
2020/12/04 09:55:26;;;;;;;29.70;16.87;;;;;;;0.28;88.46;102283.31;1825496;77;21132;-86
2020/12/04 09:57:55;;;;;;;30.77;18.35;;;;;;;0.30;88.59;102286.73;1846535;77;21440;-86
2020/12/04 10:00:23;;;;;;;29.15;17.37;;;;;;;0.34;88.75;102283.72;1848525;77;21386;-86
2020/12/04 10:02:51;;;;;;;29.52;16.82;;;;;;;0.37;89.20;102288.81;1821256;77;21187;-86
2020/12/04 10:05:19;;;;;;;25.35;15.53;;;;;;;0.37;88.63;102286.24;1833058;77;21068;-86
2020/12/04 10:07:47;;;;;;;27.37;17.90;;;;;;;0.37;88.82;102290.09;1820759;78;21079;-86
2020/12/04 10:10:15;;;;;;;28.75;17.52;;;;;;;0.39;89.17;102294.78;1820696;78;21494;-87
2020/12/04 10:12:43;;;;;;;27.82;17.27;;;;;;;0.40;88.92;102291.36;1828066;77;21194;-86
2020/12/04 10:15:12;;;;;;;29.02;17.00;;;;;;;0.40;89.11;102293.93;1851472;77;21194;-86
2020/12/04 10:17:40;;;;;;;29.72;18.02;;;;;;;0.37;88.32;102297.78;1851527;77;21135;-87
2020/12/04 10:20:08;;;;;;;28.27;16.45;;;;;;;0.27;89.06;102305.95;1851553;77;21146;-87
2020/12/04 10:22:36;;;;;;;28.10;16.77;;;;;;;0.22;89.35;102298.28;1851667;77;21563;-87
2020/12/04 10:25:04;;;;;;;29.20;17.92;;;;;;;0.18;89.82;102300.45;1851577;77;21154;-87
2020/12/04 10:27:32;;;;;;;31.93;19.05;;;;;;;0.15;90.04;102299.17;1851554;77;21154;-87
2020/12/04 10:30:00;;;;;;;29.98;17.65;;;;;;;0.10;90.57;102291.50;1851541;77;21123;-87
2020/12/04 10:32:28;;;;;;;25.27;17.23;;;;;;;0.06;90.63;102298.80;1851539;77;21197;-87
2020/12/04 10:34:57;;;;;;;27.10;16.97;;;;;;;0.03;90.95;102297.96;1851572;77;21040;-87
2020/12/04 10:37:25;;;;;;;26.07;16.10;;;;;;;0.05;90.84;102291.09;1851578;77;21452;-87
2020/12/04 10:39:53;;;;;;;27.17;17.60;;;;;;;0.08;90.89;102289.81;1851455;77;21222;-88
2020/12/04 10:42:21;;;;;;;29.40;18.48;;;;;;;0.12;91.25;102288.96;1851441;77;21182;-88
2020/12/04 10:44:49;;;;;;;29.50;19.05;;;;;;;0.13;91.96;102286.38;1851620;77;21162;-89
2020/12/04 10:47:17;;;;;;;27.00;17.25;;;;;;;0.12;91.61;102287.23;1848702;77;21484;-88
2020/12/04 10:49:46;;;;;;;30.57;17.60;;;;;;;0.12;91.56;102283.84;1851535;77;21940;-88
2020/12/04 10:52:14;;;;;;;27.52;16.50;;;;;;;0.14;91.83;102276.56;1851443;77;21119;-89
2020/12/04 10:54:42;;;;;;;28.45;18.17;;;;;;;0.18;92.11;102283.80;1851656;77;21135;-89
2020/12/04 10:57:10;;;;;;;28.73;18.77;;;;;;;0.21;92.15;102283.77;1851682;77;21194;-89
2020/12/04 10:59:40;;;;;;;28.65;17.85;;;;;;;0.20;92.20;102283.78;1851679;77;21147;-89
2020/12/04 11:02:25;;;;;;;31.70;18.15;;;;;;;0.18;92.46;102274.83;1842416;77;22228;-89
2020/12/04 11:07:32;;;;;;;26.80;17.02;;;;;;;0.20;93.00;102275.66;1759729;80;21651;-88
2020/12/04 11:10:00;;;;;;;23.80;15.35;;;;;;;0.21;92.81;102279.09;1755744;81;21159;-88
2020/12/04 11:12:28;;;;;;;32.58;18.52;;;;;;;0.19;92.78;102273.98;1740360;80;21195;-89
2020/12/04 11:14:56;;;;;;;25.90;15.98;;;;;;;0.14;92.28;102275.28;1760678;80;21469;-91
2020/12/04 11:17:25;;;;;;;25.05;16.40;;;;;;;0.11;92.66;102282.13;1778134;80;21461;-89
2020/12/04 11:19:56;;;;;;;29.12;16.42;;;;;;;0.10;92.91;102272.73;1773513;80;21190;-89
2020/12/04 11:22:24;;;;;;;26.25;16.15;;;;;;;0.12;92.99;102278.27;1751042;80;21187;-88
2020/12/04 11:24:53;;;;;;;28.38;15.55;;;;;;;0.12;92.96;102289.80;1786287;80;22219;-90
2020/12/04 11:27:21;;;;;;;28.73;17.40;;;;;;;0.12;92.87;102282.55;1776613;80;21256;-90
2020/12/04 11:29:51;;;;;;;36.08;19.27;;;;;;;0.12;93.13;102281.27;1786089;80;21159;-89
2020/12/04 11:32:22;;;;;;;27.85;17.85;;;;;;;0.05;92.79;102270.20;1771353;80;21201;-88